Terminal Aerodrome Forecast
Issued by NWS Sterling, VA

Current Version | Previous Version | Graphics & Text | Print | Product List | Glossary On
Versions: 1 2 3 4 5 6 7 8 9 10 11 12 13 14 15 16 17 18 19
014
FTUS41 KLWX 201139
TAFMRB
TAF
KMRB 201139Z 2012/2112 VRB04KT 3SM BR FEW090
     FM201300 23005KT 2SM BR FEW090
     FM201400 24008KT P6SM SCT050
     FM201700 28010G18KT P6SM SCT050
     FM202200 31010G18KT P6SM SCT050
     FM210100 32005KT P6SM SCT050 SCT200
     FM210500 VRB03KT 3SM BR SCT050 BKN200=

USA.gov is the U.S. government's official web portal to all federal, state and local government web resources and services.